PWSweather.com
Personal Weather Stations
Station Observations
VPOKROGLO
Kal Nad Kanalom, PrimorskaSI

Kal Nad KanalomPrimorskaSI

Lat: 46.072, Lon: 13.734

Elevation: 2526

Station Type: WS-2355

http://www.okroglovreme.com

High Low Average
Temperature 34.9°F1.6°C 28.0°F-2.2°C 29.8°F-1.2°C
Dew Point 32.7°F0.4°C 26.0°F-3.3°C 27.8°F-2.3°C
Winds 7.8 mph 12.6 kmh 0.5 mph 0.8 kmh 5.0 mph E8.0 kmh E
Wind Gusts 26.6 mph42.8 kmh 2.5 mph4.0 kmh 15.0 mph24.1 kmh
Humidity 93% 91% 92%
Pressure 30.40 in1029.5 mb 30.13 in1020.3 mb -
Precipitation 0.31 in7.9 mm - -
Hour Temp Dew Point Humidity Winds Wind Gusts Pressure Precip Precip Rate Daily Precip Total
12:00 AM 34.9°F1.6°C 32.7°F0.4°C 92% 0.5 mph ESE0.8 kmh ESE 2.5 mph4.0 kmh 30.13 in1020.3 mb 0.02 in0.5 mm 0.00 in/hr0.0 mm/hr 0.31 in7.9 mm
12:15 AM 34.9°F1.6°C 32.7°F0.4°C 92% 0.6 mph WSW1.0 kmh WSW 2.9 mph4.7 kmh 30.13 in1020.3 mb 0.00 in0.0 mm 0.00 in/hr0.0 mm/hr 0.02 in0.5 mm
12:30 AM 34.9°F1.6°C 32.7°F0.4°C 92% 0.7 mph NE1.1 kmh NE 3.1 mph5.0 kmh 30.14 in1020.7 mb 0.02 in0.5 mm 0.08 in/hr2.0 mm/hr 0.02 in0.5 mm
12:45 AM 34.9°F1.6°C 32.7°F0.4°C 92% 1.2 mph SSW1.9 kmh SSW 3.8 mph6.1 kmh 30.13 in1020.3 mb 0.04 in1.0 mm 0.08 in/hr2.0 mm/hr 0.04 in1.0 mm
01:00 AM 34.9°F1.6°C 32.7°F0.4°C 92% 1.3 mph NE2.1 kmh NE 4.5 mph7.2 kmh 30.13 in1020.3 mb 0.06 in1.5 mm 0.03 in/hr0.8 mm/hr 0.06 in1.5 mm
01:15 AM 34.5°F1.4°C 32.4°F0.2°C 92% 1.6 mph S2.6 kmh S 6.5 mph10.5 kmh 30.14 in1020.7 mb 0.10 in2.5 mm 0.16 in/hr4.1 mm/hr 0.10 in2.5 mm
01:30 AM 34.0°F1.1°C 31.5°F-0.3°C 91% 1.8 mph E2.9 kmh E 6.9 mph11.1 kmh 30.14 in1020.7 mb 0.10 in2.5 mm 0.00 in/hr0.0 mm/hr 0.12 in3.0 mm
01:45 AM 33.8°F1.0°C 31.4°F-0.3°C 91% 3.9 mph ESE6.3 kmh ESE 10.3 mph16.6 kmh 30.15 in1021.0 mb 0.12 in3.0 mm 0.08 in/hr2.0 mm/hr 0.16 in4.1 mm
02:00 AM 33.4°F0.8°C 31.0°F-0.6°C 91% 2.8 mph ENE4.5 kmh ENE 11.2 mph18.0 kmh 30.15 in1021.0 mb 0.10 in2.5 mm 0.00 in/hr0.0 mm/hr 0.16 in4.1 mm
02:15 AM 33.3°F0.7°C 30.9°F-0.6°C 91% 3.5 mph E5.6 kmh E 14.3 mph23.0 kmh 30.15 in1021.0 mb 0.08 in2.0 mm 0.00 in/hr0.0 mm/hr 0.18 in4.6 mm
02:30 AM 33.1°F0.6°C 30.7°F-0.7°C 91% 2.9 mph E4.7 kmh E 11.6 mph18.7 kmh 30.15 in1021.0 mb 0.06 in1.5 mm 0.00 in/hr0.0 mm/hr 0.18 in4.6 mm
02:45 AM 32.9°F0.5°C 30.5°F-0.8°C 91% 2.6 mph ESE4.2 kmh ESE 11.6 mph18.7 kmh 30.15 in1021.0 mb 0.04 in1.0 mm 0.00 in/hr0.0 mm/hr 0.20 in5.1 mm
03:00 AM 32.9°F0.5°C 30.5°F-0.8°C 91% 4.1 mph E6.6 kmh E 9.6 mph15.4 kmh 30.15 in1021.0 mb 0.04 in1.0 mm 0.00 in/hr0.0 mm/hr 0.20 in5.1 mm
03:15 AM 32.7°F0.4°C 30.4°F-0.9°C 91% 2.8 mph E4.5 kmh E 12.8 mph20.6 kmh 30.14 in1020.7 mb 0.02 in0.5 mm 0.00 in/hr0.0 mm/hr 0.20 in5.1 mm
03:30 AM 32.5°F0.3°C 30.2°F-1.0°C 91% 2.5 mph E4.0 kmh E 10.5 mph16.9 kmh 30.15 in1021.0 mb 0.02 in0.5 mm 0.00 in/hr0.0 mm/hr 0.20 in5.1 mm
03:45 AM 32.2°F0.1°C 29.9°F-1.2°C 91% 2.3 mph E3.7 kmh E 9.2 mph14.8 kmh 30.15 in1021.0 mb 0.02 in0.5 mm 0.00 in/hr0.0 mm/hr 0.22 in5.6 mm
04:00 AM 31.8°F-0.1°C 29.6°F-1.3°C 91% 2.2 mph E3.5 kmh E 13.4 mph21.6 kmh 30.16 in1021.3 mb 0.04 in1.0 mm 0.03 in/hr0.8 mm/hr 0.24 in6.1 mm
04:15 AM 31.8°F-0.1°C 29.8°F-1.2°C 92% 2.1 mph E3.4 kmh E 6.3 mph10.1 kmh 30.16 in1021.3 mb 0.04 in1.0 mm 0.00 in/hr0.0 mm/hr 0.24 in6.1 mm
04:30 AM 31.6°F-0.2°C 29.6°F-1.3°C 92% 3.0 mph E4.8 kmh E 11.2 mph18.0 kmh 30.17 in1021.7 mb 0.04 in1.0 mm 0.00 in/hr0.0 mm/hr 0.24 in6.1 mm
04:45 AM 31.1°F-0.5°C 29.1°F-1.6°C 92% 3.9 mph E6.3 kmh E 14.3 mph23.0 kmh 30.17 in1021.7 mb 0.04 in1.0 mm 0.00 in/hr0.0 mm/hr 0.26 in6.6 mm
05:00 AM 30.7°F-0.7°C 28.7°F-1.8°C 92% 3.4 mph E5.5 kmh E 12.3 mph19.8 kmh 30.17 in1021.7 mb 0.02 in0.5 mm 0.00 in/hr0.0 mm/hr 0.26 in6.6 mm
05:15 AM 30.4°F-0.9°C 28.4°F-2.0°C 92% 5.5 mph E8.9 kmh E 14.5 mph23.3 kmh 30.17 in1021.7 mb 0.02 in0.5 mm 0.00 in/hr0.0 mm/hr 0.26 in6.6 mm
05:30 AM 30.0°F-1.1°C 28.0°F-2.2°C 92% 6.2 mph E10.0 kmh E 21.5 mph34.6 kmh 30.16 in1021.3 mb 0.04 in1.0 mm 0.08 in/hr2.0 mm/hr 0.29 in7.4 mm
05:45 AM 29.8°F-1.2°C 27.8°F-2.3°C 92% 4.3 mph E6.9 kmh E 11.0 mph17.7 kmh 30.18 in1022.0 mb 0.02 in0.5 mm 0.00 in/hr0.0 mm/hr 0.29 in7.4 mm
06:00 AM 29.8°F-1.2°C 27.8°F-2.3°C 92% 4.1 mph E6.6 kmh E 15.7 mph25.3 kmh 30.19 in1022.4 mb 0.02 in0.5 mm 0.00 in/hr0.0 mm/hr 0.29 in7.4 mm
06:15 AM 29.5°F-1.4°C 27.5°F-2.5°C 92% 7.4 mph E11.9 kmh E 16.3 mph26.2 kmh 30.19 in1022.4 mb 0.02 in0.5 mm 0.00 in/hr0.0 mm/hr 0.29 in7.4 mm
06:30 AM 29.1°F-1.6°C 27.1°F-2.7°C 92% 6.6 mph E10.6 kmh E 19.2 mph30.9 kmh 30.19 in1022.4 mb 0.00 in0.0 mm 0.00 in/hr0.0 mm/hr 0.29 in7.4 mm
06:45 AM 28.9°F-1.7°C 26.9°F-2.8°C 92% 7.5 mph E12.1 kmh E 26.6 mph42.8 kmh 30.20 in1022.7 mb 0.00 in0.0 mm 0.00 in/hr0.0 mm/hr 0.29 in7.4 mm
07:00 AM 28.8°F-1.8°C 27.0°F-2.8°C 93% 6.9 mph E11.1 kmh E 20.4 mph32.8 kmh 30.19 in1022.4 mb 0.00 in0.0 mm 0.00 in/hr0.0 mm/hr 0.29 in7.4 mm
07:15 AM 28.6°F-1.9°C 26.8°F-2.9°C 93% 6.4 mph E10.3 kmh E 16.3 mph26.2 kmh 30.20 in1022.7 mb 0.00 in0.0 mm 0.00 in/hr0.0 mm/hr 0.29 in7.4 mm
07:30 AM 28.6°F-1.9°C 26.8°F-2.9°C 93% 7.2 mph E11.6 kmh E 20.4 mph32.8 kmh 30.22 in1023.4 mb 0.00 in0.0 mm 0.00 in/hr0.0 mm/hr 0.29 in7.4 mm
07:45 AM 28.6°F-1.9°C 26.8°F-2.9°C 93% 7.4 mph E11.9 kmh E 16.3 mph26.2 kmh 30.22 in1023.4 mb 0.00 in0.0 mm 0.00 in/hr0.0 mm/hr 0.29 in7.4 mm
08:00 AM 28.2°F-2.1°C 26.2°F-3.2°C 92% 6.8 mph E10.9 kmh E 22.1 mph35.6 kmh 30.22 in1023.4 mb 0.00 in0.0 mm 0.00 in/hr0.0 mm/hr 0.29 in7.4 mm
08:15 AM 28.2°F-2.1°C 26.2°F-3.2°C 92% 6.9 mph E11.1 kmh E 18.3 mph29.5 kmh 30.23 in1023.7 mb 0.00 in0.0 mm 0.00 in/hr0.0 mm/hr 0.29 in7.4 mm
08:30 AM 28.2°F-2.1°C 26.2°F-3.2°C 92% 6.8 mph E10.9 kmh E 19.2 mph30.9 kmh 30.23 in1023.7 mb 0.00 in0.0 mm 0.00 in/hr0.0 mm/hr 0.29 in7.4 mm
08:45 AM 28.2°F-2.1°C 26.2°F-3.2°C 92% 7.2 mph E11.6 kmh E 18.8 mph30.3 kmh 30.25 in1024.4 mb 0.00 in0.0 mm 0.00 in/hr0.0 mm/hr 0.29 in7.4 mm
09:00 AM 28.2°F-2.1°C 26.2°F-3.2°C 92% 7.8 mph E12.6 kmh E 17.2 mph27.7 kmh 30.25 in1024.4 mb 0.00 in0.0 mm 0.00 in/hr0.0 mm/hr 0.29 in7.4 mm
09:15 AM 28.2°F-2.1°C 26.2°F-3.2°C 92% 6.0 mph E9.7 kmh E 15.0 mph24.1 kmh 30.25 in1024.4 mb 0.00 in0.0 mm 0.00 in/hr0.0 mm/hr 0.29 in7.4 mm
09:30 AM 28.2°F-2.1°C 26.2°F-3.2°C 92% 7.5 mph E12.1 kmh E 16.3 mph26.2 kmh 30.25 in1024.4 mb 0.00 in0.0 mm 0.00 in/hr0.0 mm/hr 0.29 in7.4 mm
09:45 AM 28.2°F-2.1°C 26.2°F-3.2°C 92% 5.7 mph E9.2 kmh E 14.3 mph23.0 kmh 30.26 in1024.7 mb 0.00 in0.0 mm 0.00 in/hr0.0 mm/hr 0.29 in7.4 mm
10:00 AM 28.4°F-2.0°C 26.4°F-3.1°C 92% 6.6 mph E10.6 kmh E 19.5 mph31.4 kmh 30.26 in1024.7 mb 0.00 in0.0 mm 0.00 in/hr0.0 mm/hr 0.29 in7.4 mm
10:15 AM 28.4°F-2.0°C 26.4°F-3.1°C 92% 6.2 mph E10.0 kmh E 15.7 mph25.3 kmh 30.27 in1025.1 mb 0.00 in0.0 mm 0.00 in/hr0.0 mm/hr 0.29 in7.4 mm
10:30 AM 28.6°F-1.9°C 26.8°F-2.9°C 93% 6.8 mph E10.9 kmh E 19.7 mph31.7 kmh 30.27 in1025.1 mb 0.00 in0.0 mm 0.00 in/hr0.0 mm/hr 0.29 in7.4 mm
10:45 AM 28.6°F-1.9°C 26.8°F-2.9°C 93% 4.8 mph E7.7 kmh E 12.3 mph19.8 kmh 30.28 in1025.4 mb 0.00 in0.0 mm 0.00 in/hr0.0 mm/hr 0.29 in7.4 mm
11:00 AM 28.8°F-1.8°C 27.0°F-2.8°C 93% 6.4 mph E10.3 kmh E 17.0 mph27.4 kmh 30.28 in1025.4 mb 0.00 in0.0 mm 0.00 in/hr0.0 mm/hr 0.29 in7.4 mm
11:15 AM 28.9°F-1.7°C 27.2°F-2.7°C 93% 6.3 mph E10.1 kmh E 18.8 mph30.3 kmh 30.28 in1025.4 mb 0.00 in0.0 mm 0.00 in/hr0.0 mm/hr 0.29 in7.4 mm
11:30 AM 29.1°F-1.6°C 27.4°F-2.6°C 93% 4.5 mph E7.2 kmh E 11.9 mph19.2 kmh 30.29 in1025.7 mb 0.00 in0.0 mm 0.00 in/hr0.0 mm/hr 0.29 in7.4 mm
11:45 AM 29.1°F-1.6°C 27.4°F-2.6°C 93% 5.7 mph E9.2 kmh E 14.8 mph23.8 kmh 30.29 in1025.7 mb 0.00 in0.0 mm 0.00 in/hr0.0 mm/hr 0.29 in7.4 mm
12:00 PM 29.5°F-1.4°C 27.7°F-2.4°C 93% 6.5 mph E10.5 kmh E 13.2 mph21.2 kmh 30.29 in1025.7 mb 0.00 in0.0 mm 0.00 in/hr0.0 mm/hr 0.29 in7.4 mm
12:15 PM 29.5°F-1.4°C 27.7°F-2.4°C 93% 6.1 mph E9.8 kmh E 15.7 mph25.3 kmh 30.29 in1025.7 mb 0.00 in0.0 mm 0.00 in/hr0.0 mm/hr 0.29 in7.4 mm
12:30 PM 29.5°F-1.4°C 27.7°F-2.4°C 93% 5.9 mph E9.5 kmh E 17.2 mph27.7 kmh 30.28 in1025.4 mb 0.02 in0.5 mm 0.08 in/hr2.0 mm/hr 0.31 in7.9 mm
12:45 PM 29.5°F-1.4°C 27.7°F-2.4°C 93% 6.6 mph E10.6 kmh E 14.5 mph23.3 kmh 30.29 in1025.7 mb 0.02 in0.5 mm 0.00 in/hr0.0 mm/hr 0.31 in7.9 mm
01:00 PM 29.7°F-1.3°C 27.9°F-2.3°C 93% 5.6 mph E9.0 kmh E 16.3 mph26.2 kmh 30.29 in1025.7 mb 0.02 in0.5 mm 0.00 in/hr0.0 mm/hr 0.31 in7.9 mm
01:15 PM 29.8°F-1.2°C 28.1°F-2.2°C 93% 5.1 mph E8.2 kmh E 14.1 mph22.7 kmh 30.30 in1026.1 mb 0.02 in0.5 mm 0.00 in/hr0.0 mm/hr 0.31 in7.9 mm
01:30 PM 29.8°F-1.2°C 28.1°F-2.2°C 93% 5.6 mph E9.0 kmh E 16.8 mph27.0 kmh 30.29 in1025.7 mb 0.00 in0.0 mm 0.00 in/hr0.0 mm/hr 0.31 in7.9 mm
01:45 PM 29.8°F-1.2°C 28.1°F-2.2°C 93% 6.5 mph E10.5 kmh E 17.2 mph27.7 kmh 30.30 in1026.1 mb 0.00 in0.0 mm 0.00 in/hr0.0 mm/hr 0.31 in7.9 mm
02:00 PM 29.8°F-1.2°C 28.1°F-2.2°C 93% 5.0 mph E8.0 kmh E 12.1 mph19.5 kmh 30.30 in1026.1 mb 0.00 in0.0 mm 0.00 in/hr0.0 mm/hr 0.31 in7.9 mm
02:15 PM 30.0°F-1.1°C 28.3°F-2.1°C 93% 5.0 mph E8.0 kmh E 14.1 mph22.7 kmh 30.31 in1026.4 mb 0.00 in0.0 mm 0.00 in/hr0.0 mm/hr 0.31 in7.9 mm
02:30 PM 29.8°F-1.2°C 28.1°F-2.2°C 93% 5.6 mph E9.0 kmh E 15.7 mph25.3 kmh 30.31 in1026.4 mb 0.00 in0.0 mm 0.00 in/hr0.0 mm/hr 0.31 in7.9 mm
02:45 PM 29.8°F-1.2°C 28.1°F-2.2°C 93% 5.1 mph E8.2 kmh E 14.8 mph23.8 kmh 30.31 in1026.4 mb 0.00 in0.0 mm 0.00 in/hr0.0 mm/hr 0.31 in7.9 mm
03:00 PM 30.0°F-1.1°C 28.3°F-2.1°C 93% 4.8 mph E7.7 kmh E 13.0 mph20.9 kmh 30.32 in1026.8 mb 0.00 in0.0 mm 0.00 in/hr0.0 mm/hr 0.31 in7.9 mm
03:15 PM 29.8°F-1.2°C 28.1°F-2.2°C 93% 5.1 mph E8.2 kmh E 13.0 mph20.9 kmh 30.31 in1026.4 mb 0.00 in0.0 mm 0.00 in/hr0.0 mm/hr 0.31 in7.9 mm
03:30 PM 29.7°F-1.3°C 27.9°F-2.3°C 93% 6.1 mph E9.8 kmh E 16.8 mph27.0 kmh 30.32 in1026.8 mb 0.00 in0.0 mm 0.00 in/hr0.0 mm/hr 0.31 in7.9 mm
03:45 PM 29.5°F-1.4°C 27.7°F-2.4°C 93% 6.1 mph E9.8 kmh E 17.9 mph28.8 kmh 30.31 in1026.4 mb 0.00 in0.0 mm 0.00 in/hr0.0 mm/hr 0.31 in7.9 mm
04:00 PM 29.5°F-1.4°C 27.7°F-2.4°C 93% 5.0 mph E8.0 kmh E 13.2 mph21.2 kmh 30.31 in1026.4 mb 0.00 in0.0 mm 0.00 in/hr0.0 mm/hr 0.31 in7.9 mm
04:15 PM 29.5°F-1.4°C 27.7°F-2.4°C 93% 6.8 mph E10.9 kmh E 19.7 mph31.7 kmh 30.31 in1026.4 mb 0.00 in0.0 mm 0.00 in/hr0.0 mm/hr 0.31 in7.9 mm
04:30 PM 29.5°F-1.4°C 27.7°F-2.4°C 93% 5.0 mph E8.0 kmh E 17.0 mph27.4 kmh 30.31 in1026.4 mb 0.00 in0.0 mm 0.00 in/hr0.0 mm/hr 0.31 in7.9 mm
04:45 PM 29.3°F-1.5°C 27.5°F-2.5°C 93% 6.2 mph E10.0 kmh E 18.1 mph29.1 kmh 30.31 in1026.4 mb 0.00 in0.0 mm 0.00 in/hr0.0 mm/hr 0.31 in7.9 mm
05:00 PM 29.1°F-1.6°C 27.4°F-2.6°C 93% 3.9 mph E6.3 kmh E 11.2 mph18.0 kmh 30.32 in1026.8 mb 0.00 in0.0 mm 0.00 in/hr0.0 mm/hr 0.31 in7.9 mm
05:15 PM 29.1°F-1.6°C 27.4°F-2.6°C 93% 5.7 mph E9.2 kmh E 20.1 mph32.3 kmh 30.32 in1026.8 mb 0.00 in0.0 mm 0.00 in/hr0.0 mm/hr 0.31 in7.9 mm
05:30 PM 28.9°F-1.7°C 27.2°F-2.7°C 93% 5.7 mph E9.2 kmh E 21.7 mph34.9 kmh 30.32 in1026.8 mb 0.00 in0.0 mm 0.00 in/hr0.0 mm/hr 0.31 in7.9 mm
05:45 PM 28.8°F-1.8°C 27.0°F-2.8°C 93% 5.0 mph E8.0 kmh E 14.1 mph22.7 kmh 30.32 in1026.8 mb 0.00 in0.0 mm 0.00 in/hr0.0 mm/hr 0.31 in7.9 mm
06:00 PM 28.6°F-1.9°C 26.8°F-2.9°C 93% 5.4 mph E8.7 kmh E 15.2 mph24.5 kmh 30.33 in1027.1 mb 0.00 in0.0 mm 0.00 in/hr0.0 mm/hr 0.31 in7.9 mm
06:15 PM 28.4°F-2.0°C 26.6°F-3.0°C 93% 5.0 mph E8.0 kmh E 15.7 mph25.3 kmh 30.33 in1027.1 mb 0.00 in0.0 mm 0.00 in/hr0.0 mm/hr 0.31 in7.9 mm
06:30 PM 28.2°F-2.1°C 26.5°F-3.1°C 93% 5.5 mph E8.9 kmh E 15.7 mph25.3 kmh 30.34 in1027.4 mb 0.00 in0.0 mm 0.00 in/hr0.0 mm/hr 0.31 in7.9 mm
06:45 PM 28.2°F-2.1°C 26.2°F-3.2°C 92% 6.1 mph E9.8 kmh E 18.6 mph29.9 kmh 30.34 in1027.4 mb 0.00 in0.0 mm 0.00 in/hr0.0 mm/hr 0.31 in7.9 mm
07:00 PM 28.2°F-2.1°C 26.2°F-3.2°C 92% 6.8 mph E10.9 kmh E 16.1 mph25.9 kmh 30.34 in1027.4 mb 0.00 in0.0 mm 0.00 in/hr0.0 mm/hr 0.31 in7.9 mm
07:15 PM 28.2°F-2.1°C 26.2°F-3.2°C 92% 7.3 mph E11.7 kmh E 19.9 mph32.0 kmh 30.34 in1027.4 mb 0.00 in0.0 mm 0.00 in/hr0.0 mm/hr 0.31 in7.9 mm
07:30 PM 28.2°F-2.1°C 26.2°F-3.2°C 92% 6.4 mph E10.3 kmh E 17.4 mph28.0 kmh 30.35 in1027.8 mb 0.00 in0.0 mm 0.00 in/hr0.0 mm/hr 0.31 in7.9 mm
07:45 PM 28.0°F-2.2°C 26.0°F-3.3°C 92% 5.9 mph E9.5 kmh E 16.1 mph25.9 kmh 30.36 in1028.1 mb 0.00 in0.0 mm 0.00 in/hr0.0 mm/hr 0.31 in7.9 mm
08:00 PM 28.2°F-2.1°C 26.2°F-3.2°C 92% 7.0 mph E11.3 kmh E 19.7 mph31.7 kmh 30.35 in1027.8 mb 0.00 in0.0 mm 0.00 in/hr0.0 mm/hr 0.31 in7.9 mm
08:15 PM 28.2°F-2.1°C 26.2°F-3.2°C 92% 6.0 mph E9.7 kmh E 21.7 mph34.9 kmh 30.36 in1028.1 mb 0.00 in0.0 mm 0.00 in/hr0.0 mm/hr 0.31 in7.9 mm
08:30 PM 28.0°F-2.2°C 26.0°F-3.3°C 92% 5.6 mph E9.0 kmh E 19.5 mph31.4 kmh 30.36 in1028.1 mb 0.00 in0.0 mm 0.00 in/hr0.0 mm/hr 0.31 in7.9 mm
08:45 PM 28.0°F-2.2°C 26.0°F-3.3°C 92% 5.8 mph E9.3 kmh E 13.2 mph21.2 kmh 30.37 in1028.4 mb 0.00 in0.0 mm 0.00 in/hr0.0 mm/hr 0.31 in7.9 mm
09:00 PM 28.2°F-2.1°C 26.2°F-3.2°C 92% 6.0 mph E9.7 kmh E 16.1 mph25.9 kmh 30.37 in1028.4 mb 0.00 in0.0 mm 0.00 in/hr0.0 mm/hr 0.31 in7.9 mm
09:15 PM 28.2°F-2.1°C 26.2°F-3.2°C 92% 5.9 mph E9.5 kmh E 19.5 mph31.4 kmh 30.38 in1028.8 mb 0.00 in0.0 mm 0.00 in/hr0.0 mm/hr 0.31 in7.9 mm
09:30 PM 28.2°F-2.1°C 26.2°F-3.2°C 92% 6.0 mph E9.7 kmh E 17.9 mph28.8 kmh 30.38 in1028.8 mb 0.00 in0.0 mm 0.00 in/hr0.0 mm/hr 0.31 in7.9 mm
09:45 PM 28.2°F-2.1°C 26.2°F-3.2°C 92% 7.2 mph E11.6 kmh E 18.6 mph29.9 kmh 30.38 in1028.8 mb 0.00 in0.0 mm 0.00 in/hr0.0 mm/hr 0.31 in7.9 mm
10:00 PM 28.2°F-2.1°C 26.2°F-3.2°C 92% 5.2 mph E8.4 kmh E 11.9 mph19.2 kmh 30.39 in1029.1 mb 0.00 in0.0 mm 0.00 in/hr0.0 mm/hr 0.31 in7.9 mm
10:15 PM 28.2°F-2.1°C 26.2°F-3.2°C 92% 5.3 mph E8.5 kmh E 15.7 mph25.3 kmh 30.39 in1029.1 mb 0.00 in0.0 mm 0.00 in/hr0.0 mm/hr 0.31 in7.9 mm
10:30 PM 28.2°F-2.1°C 26.2°F-3.2°C 92% 5.4 mph E8.7 kmh E 16.6 mph26.7 kmh 30.39 in1029.1 mb 0.00 in0.0 mm 0.00 in/hr0.0 mm/hr 0.31 in7.9 mm
10:45 PM 28.2°F-2.1°C 26.2°F-3.2°C 92% 6.2 mph E10.0 kmh E 17.0 mph27.4 kmh 30.40 in1029.5 mb 0.00 in0.0 mm 0.00 in/hr0.0 mm/hr 0.31 in7.9 mm
11:00 PM 28.2°F-2.1°C 26.0°F-3.3°C 91% 6.7 mph E10.8 kmh E 17.7 mph28.5 kmh 30.40 in1029.5 mb 0.00 in0.0 mm 0.00 in/hr0.0 mm/hr 0.31 in7.9 mm
11:15 PM 28.2°F-2.1°C 26.0°F-3.3°C 91% 5.7 mph E9.2 kmh E 21.9 mph35.2 kmh 30.39 in1029.1 mb 0.00 in0.0 mm 0.00 in/hr0.0 mm/hr 0.31 in7.9 mm
11:30 PM 28.2°F-2.1°C 26.0°F-3.3°C 91% 6.6 mph E10.6 kmh E 19.7 mph31.7 kmh 30.40 in1029.5 mb 0.00 in0.0 mm 0.00 in/hr0.0 mm/hr 0.31 in7.9 mm
11:45 PM 28.2°F-2.1°C 26.0°F-3.3°C 91% 5.4 mph E8.7 kmh E 14.5 mph23.3 kmh 30.40 in1029.5 mb 0.00 in0.0 mm 0.00 in/hr0.0 mm/hr 0.31 in7.9 mm